Time;durP1;ratioP1;P1;durP2;ratioP2;P2;SDS_P1;SDS_P2;PMS_P1;PMS_P2;Temp;Humidity;BMP_temperature;BMP_pressure;BME280_temperature;BME280_humidity;BME280_pressure;Samples;Min_cycle;Max_cycle;Signal;HPM_P1;HPM_P2
2022/12/22 03:27:38;;;;;;;1.30;1.05;;;;;;;18.07;44.74;100170.50;5043903;28;20041;-65
2022/12/22 03:30:03;;;;;;;1.08;0.90;;;;;;;18.09;44.84;100168.44;5043871;28;20034;-65
2022/12/22 03:32:29;;;;;;;1.08;1.00;;;;;;;18.02;44.78;100154.06;5043964;28;20058;-65
2022/12/22 03:34:54;;;;;;;1.63;1.20;;;;;;;18.09;44.80;100173.84;5043921;28;20040;-66
2022/12/22 03:37:19;;;;;;;1.00;0.90;;;;;;;18.08;44.72;100164.94;5043698;28;20079;-65
2022/12/22 03:39:45;;;;;;;1.13;1.02;;;;;;;18.08;45.13;100161.41;5044056;28;20068;-65
2022/12/22 03:47:38;;;;;;;1.20;1.02;;;;;;;18.07;44.75;100148.97;5042480;28;20060;-66
2022/12/22 03:50:04;;;;;;;0.98;0.98;;;;;;;18.03;44.74;100148.50;5043531;28;20026;-65
2022/12/22 03:52:29;;;;;;;1.20;1.10;;;;;;;18.05;44.74;100148.31;5043496;28;20025;-66
2022/12/22 03:54:55;;;;;;;1.30;1.10;;;;;;;18.05;44.75;100148.31;5043869;28;20029;-65
2022/12/22 03:57:20;;;;;;;1.67;1.13;;;;;;;18.04;44.80;100147.47;5043585;28;20022;-66
2022/12/22 03:59:45;;;;;;;1.20;1.10;;;;;;;18.04;44.98;100143.97;5043619;28;20029;-65
2022/12/22 04:02:10;;;;;;;1.20;1.10;;;;;;;18.04;44.68;100141.28;5043744;28;20048;-66
2022/12/22 04:04:36;;;;;;;1.25;1.08;;;;;;;18.04;44.85;100139.41;5043525;28;20053;-66
2022/12/22 04:07:01;;;;;;;1.33;0.93;;;;;;;18.02;44.93;100135.25;5043263;28;20452;-64
2022/12/22 04:09:28;;;;;;;1.20;1.10;;;;;;;18.03;44.67;100135.06;5043516;28;20068;-66
2022/12/22 04:14:37;;;;;;;1.10;1.00;;;;;;;18.02;44.96;100136.09;5033854;28;20025;-65
2022/12/22 04:17:05;;;;;;;1.23;1.00;;;;;;;18.01;44.74;100126.34;5034164;28;20037;-64
2022/12/22 04:19:30;;;;;;;1.52;1.10;;;;;;;18.02;44.93;100128.00;5043545;28;20029;-64
2022/12/22 04:21:55;;;;;;;0.82;0.82;;;;;;;17.98;44.70;100124.00;5043211;28;20037;-65
2022/12/22 04:24:21;;;;;;;1.05;0.95;;;;;;;18.00;44.82;100113.91;5043689;28;20084;-65
2022/12/22 04:26:46;;;;;;;1.20;1.10;;;;;;;17.97;45.06;100112.41;5042030;28;20034;-64
2022/12/22 04:29:11;;;;;;;1.45;1.10;;;;;;;17.98;44.76;100113.25;5030935;28;20033;-65
2022/12/22 04:31:37;;;;;;;1.20;1.10;;;;;;;18.00;44.83;100121.97;5046932;28;20032;-64
2022/12/22 04:34:02;;;;;;;1.10;1.00;;;;;;;17.99;45.11;100125.69;5046533;28;20669;-64
2022/12/22 04:36:27;;;;;;;1.83;1.55;;;;;;;17.99;44.95;100137.28;5045830;28;20068;-64
2022/12/22 04:38:53;;;;;;;1.00;0.90;;;;;;;17.99;44.87;100139.97;5060962;28;20037;-64
2022/12/22 04:41:18;;;;;;;0.90;0.90;;;;;;;18.00;44.92;100140.78;5046170;28;20093;-64
2022/12/22 04:43:43;;;;;;;2.42;1.10;;;;;;;18.00;45.07;100138.09;5046632;28;20033;-64
2022/12/22 04:46:08;;;;;;;1.15;1.13;;;;;;;18.00;45.18;100127.34;5046442;28;20025;-65
2022/12/22 04:48:34;;;;;;;1.20;1.10;;;;;;;17.99;45.34;100118.44;5045909;28;20111;-64
2022/12/22 04:51:00;;;;;;;1.20;1.10;;;;;;;18.01;45.67;100122.78;5046143;28;20140;-64
2022/12/22 04:53:26;;;;;;;1.50;1.10;;;;;;;18.02;45.50;100119.13;5046939;28;20013;-64
2022/12/22 04:55:57;;;;;;;1.52;1.13;;;;;;;18.03;45.45;100123.47;5046482;28;20025;-64
2022/12/22 04:58:23;;;;;;;1.13;1.02;;;;;;;18.02;45.86;100124.50;5046041;28;20052;-64
2022/12/22 05:00:48;;;;;;;1.67;1.30;;;;;;;18.02;45.78;100117.25;5046769;28;20021;-65
2022/12/22 05:03:13;;;;;;;1.08;0.98;;;;;;;18.03;45.69;100127.00;5046121;28;20021;-64
2022/12/22 05:05:39;;;;;;;1.20;1.00;;;;;;;18.05;45.90;100124.09;5045619;28;20037;-64
2022/12/22 05:08:04;;;;;;;1.30;1.20;;;;;;;18.05;45.81;100129.47;5046056;28;20068;-64
2022/12/22 05:10:30;;;;;;;1.27;1.10;;;;;;;18.06;45.86;100134.69;5046370;28;20021;-64
2022/12/22 05:12:55;;;;;;;1.10;1.00;;;;;;;18.04;45.93;100131.34;5045041;28;20029;-64
2022/12/22 05:15:21;;;;;;;0.82;0.82;;;;;;;18.06;45.78;100132.00;5045248;28;20434;-64
2022/12/22 05:17:47;;;;;;;1.10;1.10;;;;;;;18.04;45.75;100123.28;5046000;28;20112;-64
2022/12/22 05:20:12;;;;;;;2.17;1.10;;;;;;;18.06;45.83;100133.88;5046023;28;20560;-64
2022/12/22 05:22:37;;;;;;;1.27;1.00;;;;;;;18.06;45.98;100139.25;5045182;28;20060;-64
2022/12/22 05:25:03;;;;;;;0.90;0.90;;;;;;;17.99;46.21;100125.69;5045713;28;20025;-64
2022/12/22 05:27:28;;;;;;;2.35;1.00;;;;;;;18.08;46.12;100137.19;5046127;28;20037;-64
2022/12/22 05:29:54;;;;;;;1.25;1.08;;;;;;;17.97;46.11;100122.34;5044273;28;20029;-64
2022/12/22 05:32:19;;;;;;;1.67;1.00;;;;;;;18.09;46.03;100133.47;5046061;28;20049;-64
2022/12/22 05:34:44;;;;;;;2.13;1.00;;;;;;;17.95;46.14;100117.13;5045250;28;20036;-64
2022/12/22 05:37:09;;;;;;;1.00;0.90;;;;;;;18.09;46.30;100138.88;5045258;28;20033;-64
2022/12/22 05:39:35;;;;;;;1.23;1.13;;;;;;;18.09;46.13;100130.78;5045806;28;20029;-64
2022/12/22 05:42:00;;;;;;;1.08;1.00;;;;;;;18.09;46.31;100137.00;5044769;28;20861;-64
2022/12/22 05:44:25;;;;;;;1.23;1.10;;;;;;;18.11;46.22;100131.47;5045433;28;20033;-64
2022/12/22 05:46:51;;;;;;;0.90;0.90;;;;;;;18.10;46.34;100136.00;5044833;28;20036;-65
2022/12/22 05:49:17;;;;;;;1.20;1.00;;;;;;;18.07;46.10;100132.84;5045178;28;20049;-64
2022/12/22 05:51:42;;;;;;;1.45;1.00;;;;;;;18.11;46.28;100131.47;5046644;28;20029;-65
2022/12/22 05:54:08;;;;;;;1.35;1.00;;;;;;;18.11;46.34;100131.47;5045377;28;20025;-64
2022/12/22 05:56:34;;;;;;;2.03;0.90;;;;;;;18.13;45.54;100142.88;5045234;28;20092;-64
2022/12/22 05:58:59;;;;;;;1.40;1.30;;;;;;;18.12;46.06;100143.88;5044832;28;20383;-63
2022/12/22 06:01:24;;;;;;;1.05;1.02;;;;;;;18.13;46.02;100141.00;5045162;28;20065;-64
2022/12/22 06:03:49;;;;;;;1.50;0.98;;;;;;;18.14;45.88;100144.56;5044912;28;20040;-64
2022/12/22 06:06:15;;;;;;;1.35;1.00;;;;;;;18.11;45.82;100143.06;5043616;28;20025;-64
2022/12/22 06:08:40;;;;;;;0.88;0.82;;;;;;;18.14;45.72;100158.84;5027595;28;20566;-64
2022/12/22 06:11:05;;;;;;;2.38;1.13;;;;;;;18.14;45.78;100158.00;5025155;28;20032;-64
2022/12/22 06:13:31;;;;;;;1.17;0.95;;;;;;;18.14;45.60;100163.41;5026743;28;20026;-64
2022/12/22 06:15:56;;;;;;;4.03;1.10;;;;;;;18.13;45.74;100162.53;5044036;28;20037;-64
2022/12/22 06:18:21;;;;;;;1.45;1.00;;;;;;;18.13;46.09;100167.06;5044015;28;20087;-64
2022/12/22 06:20:47;;;;;;;2.65;1.02;;;;;;;18.13;45.94;100167.06;5043904;28;20029;-65
2022/12/22 06:23:12;;;;;;;2.80;1.15;;;;;;;18.15;45.98;100173.13;5043262;28;20121;-64
2022/12/22 06:25:37;;;;;;;0.85;0.85;;;;;;;18.16;46.11;100189.06;5059595;28;20051;-64
2022/12/22 06:28:03;;;;;;;1.45;1.08;;;;;;;18.16;45.79;100182.88;5044348;28;20510;-64
2022/12/22 06:30:28;;;;;;;2.05;1.10;;;;;;;18.16;45.98;100183.69;5044810;28;20029;-64
2022/12/22 06:32:53;;;;;;;1.20;1.00;;;;;;;18.16;45.77;100189.06;5044976;28;20051;-64
2022/12/22 06:35:18;;;;;;;3.38;1.17;;;;;;;18.17;45.82;100187.22;5044586;28;20036;-65
2022/12/22 06:37:44;;;;;;;3.30;1.13;;;;;;;18.17;45.86;100190.75;5044575;28;20393;-64
2022/12/22 06:40:10;;;;;;;1.10;1.00;;;;;;;18.18;46.10;100191.56;5032566;28;20042;-64
2022/12/22 06:45:19;;;;;;;3.20;0.98;;;;;;;18.18;46.16;100176.31;5034987;28;20036;-64
2022/12/22 06:47:44;;;;;;;1.55;1.17;;;;;;;18.18;45.96;100165.53;5034836;28;20487;-65
2022/12/22 06:50:10;;;;;;;1.80;1.00;;;;;;;18.19;46.17;100174.44;5033919;28;20079;-65
2022/12/22 06:52:35;;;;;;;1.95;1.00;;;;;;;18.20;46.15;100160.78;5032897;28;20029;-65
2022/12/22 06:55:03;;;;;;;2.15;1.20;;;;;;;18.21;46.13;100172.38;5035148;28;20033;-65
2022/12/22 06:57:29;;;;;;;1.75;1.17;;;;;;;18.22;46.15;100176.75;5033724;28;20097;-65
2022/12/22 06:59:54;;;;;;;2.25;1.30;;;;;;;18.21;45.95;100172.38;5033286;28;20036;-65
2022/12/22 07:02:19;;;;;;;5.50;1.17;;;;;;;18.21;46.03;100181.28;5034928;28;20055;-65
2022/12/22 07:04:45;;;;;;;1.30;1.20;;;;;;;18.21;46.18;100185.84;5032923;28;20037;-65
2022/12/22 07:07:10;;;;;;;1.35;1.13;;;;;;;18.21;45.81;100196.59;5049199;28;20068;-64
2022/12/22 07:09:35;;;;;;;1.20;1.10;;;;;;;18.11;46.20;100191.47;5034272;28;20045;-65
2022/12/22 07:12:01;;;;;;;1.52;1.42;;;;;;;18.21;45.95;100210.88;5032794;28;20053;-63
2022/12/22 07:14:26;;;;;;;1.52;1.35;;;;;;;18.22;45.98;100227.88;5037236;28;20547;-65
2022/12/22 07:16:51;;;;;;;1.42;1.30;;;;;;;18.21;46.17;100240.50;5033567;28;20025;-65
2022/12/22 07:19:16;;;;;;;1.92;1.70;;;;;;;18.21;46.01;100245.88;5032952;28;20073;-65
2022/12/22 07:21:42;;;;;;;1.48;1.35;;;;;;;18.19;46.23;100261.38;5031624;28;20032;-65
2022/12/22 07:24:07;;;;;;;1.55;1.30;;;;;;;18.20;46.22;100257.66;5024426;28;20116;-65
2022/12/22 07:26:33;;;;;;;1.70;1.60;;;;;;;18.22;46.23;100268.22;5024292;28;20097;-65
2022/12/22 07:28:58;;;;;;;2.35;1.30;;;;;;;18.23;46.02;100272.63;5024536;28;20041;-64
2022/12/22 07:31:23;;;;;;;1.85;1.38;;;;;;;18.22;45.92;100277.16;5024392;28;20479;-63
2022/12/22 07:33:48;;;;;;;2.33;1.45;;;;;;;18.22;46.01;100279.00;5035210;28;20033;-64
2022/12/22 07:36:16;;;;;;;2.28;1.40;;;;;;;18.21;46.07;100278.16;5044356;28;20038;-64
2022/12/22 07:38:44;;;;;;;1.40;1.30;;;;;;;18.23;45.94;100286.06;5060599;28;20037;-64
2022/12/22 07:43:58;;;;;;;4.90;1.83;;;;;;;18.21;46.47;100293.47;5053449;28;20033;-64
2022/12/22 07:46:25;;;;;;;3.22;1.50;;;;;;;18.22;46.22;100297.81;5033687;28;20041;-63
2022/12/22 07:51:36;;;;;;;2.92;1.95;;;;;;;18.27;46.33;100308.09;5042512;28;20032;-63
2022/12/22 07:54:04;;;;;;;2.28;1.65;;;;;;;18.26;46.69;100301.00;5044321;28;20101;-63
2022/12/22 07:56:29;;;;;;;2.57;1.80;;;;;;;18.26;46.45;100309.91;5043481;28;20048;-64
2022/12/22 07:58:55;;;;;;;2.50;1.50;;;;;;;18.28;46.42;100305.19;5044508;28;20270;-63
2022/12/22 08:01:20;;;;;;;1.55;1.40;;;;;;;18.34;46.45;100317.09;5044131;28;20036;-64
2022/12/22 08:03:46;;;;;;;2.60;1.70;;;;;;;18.31;46.28;100306.69;5044413;28;20073;-63
2022/12/22 08:06:12;;;;;;;2.80;2.10;;;;;;;18.35;46.31;100313.38;5046654;28;20048;-64
2022/12/22 08:08:37;;;;;;;4.20;1.98;;;;;;;18.37;46.14;100319.44;5048239;28;20024;-63
2022/12/22 08:11:03;;;;;;;4.05;2.05;;;;;;;18.42;46.01;100323.25;5063280;28;20033;-63
2022/12/22 08:13:29;;;;;;;3.28;1.77;;;;;;;18.44;45.61;100323.09;5047982;28;20122;-63
2022/12/22 08:15:54;;;;;;;3.60;1.85;;;;;;;18.44;45.74;100317.72;5047099;28;20025;-63
2022/12/22 08:18:19;;;;;;;3.75;2.00;;;;;;;18.41;45.83;100315.38;5048133;28;20025;-63
2022/12/22 08:20:51;;;;;;;4.70;2.55;;;;;;;18.45;46.03;100322.91;5047993;28;20033;-63
2022/12/22 08:23:17;;;;;;;2.08;1.70;;;;;;;18.45;45.92;100325.59;5048267;28;20035;-63
2022/12/22 08:25:43;;;;;;;4.22;2.45;;;;;;;18.46;45.77;100329.94;5047736;28;20025;-63
2022/12/22 08:28:08;;;;;;;2.67;2.20;;;;;;;18.47;46.12;100336.16;5063703;28;20037;-63
2022/12/22 08:30:33;;;;;;;3.15;2.13;;;;;;;18.47;46.32;100337.00;5047933;28;20665;-63
2022/12/22 08:32:59;;;;;;;4.75;2.10;;;;;;;18.49;45.87;100340.38;5059555;28;20041;-63
2022/12/22 08:35:24;;;;;;;3.92;2.20;;;;;;;18.46;45.88;100329.13;5045727;28;20017;-63
2022/12/22 08:37:50;;;;;;;3.72;2.40;;;;;;;18.51;45.79;100342.88;5046442;28;20021;-63
2022/12/22 08:40:23;;;;;;;3.58;2.47;;;;;;;18.53;45.78;100345.41;5046775;28;20474;-63
2022/12/22 08:42:51;;;;;;;4.97;2.65;;;;;;;18.53;45.95;100342.72;5046575;28;20032;-63
2022/12/22 08:45:17;;;;;;;4.43;2.60;;;;;;;18.55;45.88;100346.88;5045885;28;20025;-63
2022/12/22 08:47:42;;;;;;;9.38;3.30;;;;;;;18.56;45.61;100350.41;5047681;28;20041;-63
2022/12/22 08:50:08;;;;;;;3.25;2.67;;;;;;;18.56;45.87;100355.78;5047037;28;20033;-63
2022/12/22 08:52:33;;;;;;;4.63;3.40;;;;;;;18.55;45.77;100363.03;5047308;28;20166;-63
2022/12/22 08:54:58;;;;;;;4.85;2.90;;;;;;;18.55;45.88;100365.72;5047330;28;20080;-63
2022/12/22 08:57:24;;;;;;;8.13;3.70;;;;;;;18.54;45.88;100366.75;5047504;28;20029;-63
2022/12/22 08:59:49;;;;;;;4.00;3.20;;;;;;;18.53;45.75;100372.31;5062594;28;20032;-63
2022/12/22 09:02:14;;;;;;;5.10;3.05;;;;;;;18.52;45.71;100386.78;5047459;28;20048;-63
2022/12/22 09:04:40;;;;;;;3.10;2.35;;;;;;;18.52;45.84;100392.16;5047257;28;20029;-62
2022/12/22 09:07:05;;;;;;;3.65;2.50;;;;;;;18.46;45.55;100382.97;5046995;28;20017;-63
2022/12/22 09:09:32;;;;;;;3.97;3.00;;;;;;;18.48;45.85;100387.16;5047185;28;20083;-63
2022/12/22 09:11:58;;;;;;;3.78;2.50;;;;;;;18.47;45.86;100385.47;5047298;28;20056;-63
2022/12/22 09:14:23;;;;;;;3.60;2.85;;;;;;;18.43;45.77;100384.13;5046926;28;20081;-63
2022/12/22 09:16:49;;;;;;;4.18;2.33;;;;;;;18.46;45.63;100396.41;5045310;28;20036;-63
2022/12/22 09:19:15;;;;;;;5.47;2.65;;;;;;;18.48;45.87;100405.16;5047272;28;20025;-63
2022/12/22 09:21:40;;;;;;;3.78;2.63;;;;;;;18.33;45.75;100382.72;5046325;28;20478;-63
2022/12/22 09:24:08;;;;;;;3.13;2.10;;;;;;;18.45;45.53;100406.34;5044036;28;20032;-63
2022/12/22 09:26:34;;;;;;;3.83;2.22;;;;;;;18.47;45.65;100411.53;5045731;28;20083;-63
2022/12/22 09:28:59;;;;;;;3.05;2.00;;;;;;;18.48;45.80;100422.16;5046131;28;20029;-63
2022/12/22 09:31:25;;;;;;;4.05;2.30;;;;;;;18.47;45.74;100420.44;5044983;28;20137;-63
2022/12/22 09:33:51;;;;;;;2.78;1.88;;;;;;;18.48;45.79;100427.53;5045592;28;20029;-62
2022/12/22 09:36:20;;;;;;;2.55;1.75;;;;;;;18.42;45.81;100414.78;5045043;28;20112;-62
2022/12/22 09:38:45;;;;;;;13.23;2.40;;;;;;;18.44;45.55;100423.53;5045599;28;20025;-62
2022/12/22 09:41:36;;;;;;;2.38;2.17;;;;;;;18.47;45.87;100433.06;5044865;28;20032;-62
2022/12/22 09:44:09;;;;;;;2.28;2.08;;;;;;;18.45;45.76;100424.34;5045269;28;20056;-62
2022/12/22 09:46:35;;;;;;;3.70;2.47;;;;;;;18.51;45.78;100426.31;5043881;28;20032;-62
2022/12/22 09:49:02;;;;;;;2.63;1.92;;;;;;;18.52;45.98;100429.84;5064654;28;20070;-62
2022/12/22 09:51:27;;;;;;;2.88;2.25;;;;;;;18.53;45.99;100437.78;5051855;28;20033;-63
2022/12/22 09:53:57;;;;;;;3.65;2.30;;;;;;;18.54;45.64;100438.59;5044677;28;20033;-62
2022/12/22 09:56:23;;;;;;;2.72;2.05;;;;;;;18.55;45.68;100443.81;5045298;28;20032;-62
2022/12/22 09:58:48;;;;;;;2.15;1.95;;;;;;;18.58;45.85;100456.91;5043945;28;20037;-62
2022/12/22 10:01:22;;;;;;;2.00;1.75;;;;;;;18.60;45.80;100460.25;5045419;28;20029;-63
2022/12/22 10:03:59;;;;;;;2.78;2.10;;;;;;;18.62;45.71;100457.41;5043874;28;20442;-63
2022/12/22 10:06:58;;;;;;;2.53;2.20;;;;;;;18.64;45.82;100463.44;5044677;28;20466;-63
2022/12/22 10:09:28;;;;;;;3.38;2.03;;;;;;;18.63;45.40;100453.69;5044903;28;20025;-62
2022/12/22 10:11:58;;;;;;;2.58;1.98;;;;;;;18.66;45.70;100454.19;5044960;28;20025;-62
2022/12/22 10:14:33;;;;;;;2.85;2.20;;;;;;;18.67;45.55;100439.69;5044971;28;20025;-62
2022/12/22 10:17:23;;;;;;;9.82;2.63;;;;;;;18.69;45.68;100434.13;5039036;28;20021;-62
2022/12/22 10:19:50;;;;;;;2.75;2.10;;;;;;;18.71;45.62;100432.97;5046078;28;20106;-62
2022/12/22 10:22:25;;;;;;;3.35;2.30;;;;;;;18.73;45.42;100438.16;5043397;28;20116;-62
2022/12/22 10:24:50;;;;;;;3.03;2.08;;;;;;;18.74;45.34;100439.84;5033824;28;20125;-63
2022/12/22 10:27:16;;;;;;;5.30;2.35;;;;;;;18.75;45.30;100449.59;5071816;28;20486;-62
2022/12/22 10:29:41;;;;;;;4.55;2.53;;;;;;;18.77;45.36;100452.94;5044254;28;20025;-63
2022/12/22 10:32:13;;;;;;;3.53;2.60;;;;;;;18.82;45.33;100453.28;5043179;28;20026;-65
2022/12/22 10:34:58;;;;;;;2.88;2.40;;;;;;;18.88;45.39;100457.09;5042798;28;20021;-62
2022/12/22 10:37:30;;;;;;;2.55;2.08;;;;;;;18.91;45.19;100445.97;5051747;28;20021;-63
2022/12/22 10:39:56;;;;;;;2.50;1.90;;;;;;;18.92;45.05;100459.25;5063617;28;20029;-62
2022/12/22 10:42:21;;;;;;;2.75;2.05;;;;;;;18.93;45.24;100450.13;5048182;28;20048;-63
2022/12/22 10:44:48;;;;;;;3.20;2.05;;;;;;;18.94;45.28;100456.38;5051047;28;20470;-62
2022/12/22 10:47:16;;;;;;;2.63;1.92;;;;;;;18.95;44.74;100455.38;5058614;28;20051;-62
2022/12/22 10:49:47;;;;;;;2.93;1.93;;;;;;;18.97;45.19;100461.41;5044360;28;20033;-62
2022/12/22 10:52:22;;;;;;;2.35;1.80;;;;;;;18.97;44.85;100459.53;5054138;28;20060;-62
2022/12/22 10:54:48;;;;;;;3.58;1.85;;;;;;;18.98;45.01;100469.28;5038613;28;20028;-62
2022/12/22 10:57:13;;;;;;;2.42;1.80;;;;;;;19.00;44.78;100479.91;5057760;28;20025;-62
2022/12/22 10:59:48;;;;;;;2.42;1.88;;;;;;;19.01;45.00;100488.81;5064538;28;20544;-62
2022/12/22 11:02:20;;;;;;;2.42;2.10;;;;;;;19.02;44.84;100487.81;5047303;28;20025;-62
2022/12/22 11:04:49;;;;;;;2.35;1.80;;;;;;;19.04;44.92;100507.34;5044111;28;20029;-62
2022/12/22 11:07:14;;;;;;;2.42;1.77;;;;;;;19.03;44.90;100501.13;5051165;28;20053;-63
2022/12/22 11:09:39;;;;;;;3.75;2.22;;;;;;;19.05;44.79;100492.84;5062674;28;20040;-62
2022/12/22 11:12:16;;;;;;;3.20;1.98;;;;;;;19.06;45.13;100497.19;5049085;28;20033;-62
2022/12/22 11:14:53;;;;;;;3.97;2.25;;;;;;;18.99;45.13;100489.00;5038397;28;20021;-62
2022/12/22 11:17:40;;;;;;;3.65;2.17;;;;;;;19.06;44.79;100510.69;5063307;28;20029;-63
2022/12/22 11:20:26;;;;;;;3.85;2.17;;;;;;;19.08;44.94;100514.88;5063827;28;20054;-63
2022/12/22 11:23:06;;;;;;;3.00;2.17;;;;;;;19.08;45.07;100493.31;5078703;28;20036;-63
2022/12/22 11:25:44;;;;;;;6.90;3.15;;;;;;;19.08;45.11;100501.41;5057647;28;20025;-63
2022/12/22 11:28:31;;;;;;;4.28;2.58;;;;;;;19.08;44.99;100500.56;5063810;28;20032;-62
2022/12/22 11:31:09;;;;;;;2.63;1.90;;;;;;;19.09;45.14;100503.06;5063823;28;20077;-63
2022/12/22 11:33:49;;;;;;;2.60;2.30;;;;;;;19.09;45.19;100508.47;5079117;28;20104;-62
2022/12/22 11:36:25;;;;;;;3.92;2.42;;;;;;;19.08;45.31;100501.41;5062842;28;20032;-63
2022/12/22 11:39:03;;;;;;;2.28;2.08;;;;;;;19.09;45.09;100504.94;5046063;28;20025;-63
2022/12/22 11:41:44;;;;;;;2.88;1.95;;;;;;;19.08;45.45;100505.97;5066178;28;20033;-63
2022/12/22 11:44:27;;;;;;;2.20;2.00;;;;;;;19.09;45.39;100513.84;5047873;28;20022;-63
2022/12/22 11:47:06;;;;;;;2.40;1.88;;;;;;;19.10;45.27;100517.38;5046434;28;20013;-62
2022/12/22 11:49:46;;;;;;;3.95;2.25;;;;;;;19.09;45.51;100519.25;5046731;28;20041;-61
2022/12/22 11:52:33;;;;;;;3.25;2.38;;;;;;;19.10;45.46;100520.06;5056272;28;20051;-63
2022/12/22 11:55:11;;;;;;;3.40;2.72;;;;;;;19.12;45.19;100520.75;5054494;28;20022;-62
2022/12/22 11:57:50;;;;;;;3.63;2.27;;;;;;;19.14;45.11;100513.31;5048917;28;20048;-63
2022/12/22 12:00:17;;;;;;;2.88;2.20;;;;;;;19.15;45.54;100513.13;5082685;28;20360;-62
2022/12/22 12:03:04;;;;;;;4.38;2.22;;;;;;;19.20;45.37;100516.13;5049373;28;20017;-62
2022/12/22 12:05:37;;;;;;;4.60;2.30;;;;;;;19.27;44.95;100518.09;5080851;28;20024;-63
2022/12/22 12:08:11;;;;;;;3.35;2.17;;;;;;;19.28;45.07;100519.78;5046849;28;20052;-62
2022/12/22 12:10:44;;;;;;;4.18;2.30;;;;;;;19.28;45.03;100517.06;5058104;28;20061;-63
2022/12/22 12:13:40;;;;;;;4.10;2.47;;;;;;;19.31;45.20;100514.03;5051295;28;20025;-62
2022/12/22 12:16:11;;;;;;;3.03;2.22;;;;;;;19.31;45.15;100508.63;5025920;28;20057;-63
2022/12/22 12:18:42;;;;;;;2.53;1.98;;;;;;;19.30;44.88;100509.66;5027740;28;20033;-63
2022/12/22 12:21:26;;;;;;;4.40;2.30;;;;;;;19.28;45.02;100503.59;5027342;28;20064;-62
2022/12/22 12:24:07;;;;;;;3.85;2.30;;;;;;;19.27;45.03;100516.25;5030596;28;20028;-62
2022/12/22 12:26:43;;;;;;;4.18;1.98;;;;;;;19.28;45.16;100506.28;5046179;28;20062;-62
2022/12/22 12:29:18;;;;;;;3.22;2.20;;;;;;;19.25;44.80;100501.28;5045860;28;20085;-63
2022/12/22 12:32:02;;;;;;;2.63;1.50;;;;;;;19.21;44.92;100498.94;5047320;28;20030;-62
2022/12/22 12:34:33;;;;;;;2.53;2.10;;;;;;;19.21;45.14;100496.25;5046923;28;20029;-63
2022/12/22 12:37:21;;;;;;;2.13;1.80;;;;;;;19.21;45.22;100492.72;5046557;28;20030;-62
2022/12/22 12:39:52;;;;;;;2.92;2.03;;;;;;;19.20;45.17;100486.50;5045817;28;20021;-62
2022/12/22 12:42:20;;;;;;;2.97;1.90;;;;;;;19.19;45.32;100489.34;5047107;28;20025;-63
2022/12/22 12:44:46;;;;;;;3.87;2.20;;;;;;;19.19;44.92;100495.56;5046702;28;20032;-62
2022/12/22 12:47:30;;;;;;;2.97;2.17;;;;;;;19.19;45.24;100487.50;5044931;28;20034;-62
2022/12/22 12:49:56;;;;;;;2.80;1.90;;;;;;;19.20;45.06;100493.75;5046594;28;20116;-62
2022/12/22 12:52:39;;;;;;;2.22;1.83;;;;;;;19.21;45.26;100487.31;5046070;28;20037;-62
2022/12/22 12:55:36;;;;;;;2.47;1.52;;;;;;;19.23;44.90;100490.66;5046578;28;20364;-62
2022/12/22 12:58:03;;;;;;;5.10;1.67;;;;;;;19.22;45.16;100497.91;5046867;28;20025;-62
2022/12/22 13:00:31;;;;;;;2.53;1.48;;;;;;;19.22;45.14;100489.84;5045536;28;20100;-62
2022/12/22 13:03:24;;;;;;;2.65;1.80;;;;;;;19.17;44.84;100481.47;5046930;28;20041;-61
2022/12/22 13:05:52;;;;;;;2.70;1.85;;;;;;;19.25;44.96;100498.59;5030267;28;20037;-62
2022/12/22 13:08:22;;;;;;;2.35;1.77;;;;;;;19.25;45.00;100495.91;5046218;28;20075;-62
2022/12/22 13:10:53;;;;;;;2.42;1.55;;;;;;;19.25;45.16;100496.72;5046568;28;20109;-63
2022/12/22 13:13:24;;;;;;;3.47;1.70;;;;;;;19.26;44.99;100494.88;5046620;28;20077;-63
2022/12/22 13:16:01;;;;;;;3.35;1.75;;;;;;;19.25;45.00;100502.13;5026692;28;20032;-62
2022/12/22 13:18:33;;;;;;;4.63;2.40;;;;;;;19.26;44.80;100497.56;5026518;28;20028;-62
2022/12/22 13:21:04;;;;;;;3.17;1.80;;;;;;;19.26;45.03;100505.66;5026677;28;20081;-63
2022/12/22 13:23:35;;;;;;;3.83;2.15;;;;;;;19.26;44.76;100513.72;5026229;28;20518;-63
2022/12/22 13:26:05;;;;;;;2.30;1.40;;;;;;;19.26;44.72;100509.19;5044960;28;20033;-62
2022/12/22 13:28:31;;;;;;;2.20;1.80;;;;;;;19.26;44.98;100513.72;5046345;28;20151;-63
2022/12/22 13:31:03;;;;;;;1.77;1.48;;;;;;;19.25;44.71;100512.06;5044805;28;20025;-63
2022/12/22 13:33:31;;;;;;;1.85;1.50;;;;;;;19.24;45.12;100500.41;5046277;28;20026;-63
2022/12/22 13:35:57;;;;;;;2.83;1.52;;;;;;;19.22;44.99;100500.63;5044739;28;20040;-63
2022/12/22 13:38:26;;;;;;;2.03;1.30;;;;;;;19.21;44.83;100507.03;5044214;28;20063;-62
2022/12/22 13:40:52;;;;;;;3.30;1.98;;;;;;;19.19;44.66;100509.06;5045926;28;20032;-62
2022/12/22 13:43:19;;;;;;;2.08;1.48;;;;;;;19.21;44.74;100516.97;5045916;28;20021;-62
2022/12/22 13:45:46;;;;;;;1.83;1.42;;;;;;;19.15;44.88;100509.59;5043936;28;20022;-63
2022/12/22 13:48:20;;;;;;;2.88;1.60;;;;;;;19.20;45.00;100534.16;5044384;28;20044;-62
2022/12/22 13:50:54;;;;;;;1.52;1.40;;;;;;;19.17;44.70;100521.03;5044194;28;20032;-63
2022/12/22 13:53:33;;;;;;;2.75;1.70;;;;;;;19.20;45.08;100520.69;5043783;28;20112;-62
2022/12/22 13:55:58;;;;;;;3.30;1.70;;;;;;;19.17;45.00;100519.19;5045499;28;20029;-63
2022/12/22 13:58:26;;;;;;;1.85;1.33;;;;;;;19.18;45.09;100523.56;5045703;28;20025;-62
2022/12/22 14:01:10;;;;;;;1.50;1.17;;;;;;;19.18;44.75;100520.84;5044358;28;20029;-62
2022/12/22 14:03:36;;;;;;;3.10;1.48;;;;;;;19.17;44.87;100516.50;5044704;28;20033;-63
2022/12/22 14:06:01;;;;;;;2.13;1.60;;;;;;;19.18;44.81;100518.16;5045079;28;20475;-63
2022/12/22 14:08:27;;;;;;;1.80;1.30;;;;;;;19.17;44.75;100508.41;5043779;28;20036;-63
2022/12/22 14:10:53;;;;;;;1.70;1.40;;;;;;;19.15;45.14;100507.72;5045125;28;20112;-63
2022/12/22 14:13:22;;;;;;;2.25;1.63;;;;;;;19.08;44.90;100496.00;5041945;28;20021;-63
2022/12/22 14:15:58;;;;;;;2.38;1.50;;;;;;;19.17;44.94;100504.88;5040094;28;20033;-62
2022/12/22 14:18:24;;;;;;;1.92;1.25;;;;;;;19.20;44.86;100499.97;5044720;28;20076;-62
2022/12/22 14:20:50;;;;;;;2.47;1.95;;;;;;;19.21;44.95;100495.41;5048424;28;20394;-63
2022/12/22 14:23:20;;;;;;;3.05;1.63;;;;;;;19.27;45.11;100499.22;5049266;28;20133;-63
2022/12/22 14:25:46;;;;;;;1.77;1.27;;;;;;;19.27;45.03;100500.06;5040118;28;20037;-63
2022/12/22 14:28:53;;;;;;;2.45;1.80;;;;;;;19.27;45.10;100499.22;5040998;28;20025;-62
2022/12/22 14:31:19;;;;;;;1.80;1.50;;;;;;;19.23;45.11;100496.88;5044024;28;20052;-63
2022/12/22 14:33:56;;;;;;;2.92;1.50;;;;;;;19.28;44.95;100490.13;5048481;28;20024;-63
2022/12/22 14:36:23;;;;;;;1.60;1.20;;;;;;;19.28;45.16;100490.13;5063371;28;20017;-64
2022/12/22 14:38:51;;;;;;;2.10;1.30;;;;;;;19.28;45.45;100496.34;5058151;28;20036;-63
2022/12/22 14:41:44;;;;;;;2.13;1.63;;;;;;;19.28;45.36;100495.50;5063994;28;20029;-62
2022/12/22 14:44:20;;;;;;;2.30;1.60;;;;;;;19.29;45.65;100492.66;5044562;28;20044;-63
2022/12/22 14:46:59;;;;;;;5.20;1.65;;;;;;;19.30;45.69;100493.50;5057418;28;20111;-63
2022/12/22 14:49:25;;;;;;;2.80;1.42;;;;;;;19.31;45.46;100493.28;5044978;28;20042;-63
2022/12/22 14:51:55;;;;;;;2.10;1.33;;;;;;;19.29;45.65;100495.34;5042993;28;20040;-63
2022/12/22 14:54:24;;;;;;;2.45;1.58;;;;;;;19.28;45.72;100498.22;5054242;28;20098;-63
2022/12/22 14:56:50;;;;;;;2.25;1.52;;;;;;;19.26;45.86;100498.41;5048250;28;20049;-62
2022/12/22 14:59:24;;;;;;;2.35;1.85;;;;;;;19.22;45.75;100492.53;5043962;28;20466;-63
2022/12/22 15:02:20;;;;;;;2.17;1.52;;;;;;;19.25;45.68;100503.97;5041953;28;20029;-63
2022/12/22 15:04:45;;;;;;;2.08;1.40;;;;;;;19.25;45.61;100499.44;5049800;28;20041;-63
2022/12/22 15:07:16;;;;;;;2.28;1.45;;;;;;;19.26;45.62;100516.44;5043272;28;20561;-63
2022/12/22 15:09:41;;;;;;;2.15;1.45;;;;;;;19.25;45.63;100499.44;5044182;28;20049;-63
2022/12/22 15:12:11;;;;;;;2.97;1.80;;;;;;;19.29;45.56;100506.13;5044457;28;20075;-64
2022/12/22 15:14:37;;;;;;;5.75;2.17;;;;;;;19.27;45.70;100497.38;5037948;28;20014;-63
2022/12/22 15:17:04;;;;;;;2.38;1.50;;;;;;;19.30;45.85;100499.72;5024121;28;20022;-63